createdAt,value
2019-05-11T00:00:01.705Z,9.02
2019-05-11T00:05:10.568Z,8.23
2019-05-11T00:10:18.349Z,9.33
2019-05-11T00:15:28.229Z,8.88
2019-05-11T00:20:36.084Z,9.87
2019-05-11T00:25:46.777Z,6.91
2019-05-11T00:30:44.900Z,8.86
2019-05-11T00:35:52.642Z,9.36
2019-05-11T00:41:00.532Z,6.83
2019-05-11T00:46:08.307Z,8.77
2019-05-11T00:51:16.112Z,9.47
2019-05-11T00:56:24.361Z,6.96
2019-05-11T01:01:32.513Z,10.09
2019-05-11T01:06:41.567Z,8.71
2019-05-11T01:11:49.700Z,6.76
2019-05-11T01:16:57.782Z,6.62
2019-05-11T01:22:07.336Z,8.21
2019-05-11T01:27:15.087Z,8.01
2019-05-11T01:32:23.894Z,7.46
2019-05-11T01:37:33.147Z,5.96
2019-05-11T01:42:40.887Z,8.95
2019-05-11T01:47:49.974Z,12.23
2019-05-11T01:53:04.670Z,7.47
2019-05-11T01:58:02.815Z,8.08
2019-05-11T02:03:10.616Z,9.13
2019-05-11T02:08:18.734Z,9.24
2019-05-11T02:13:26.594Z,10.23
2019-05-11T02:18:34.831Z,7.88
2019-05-11T02:23:42.748Z,9.84
2019-05-11T02:28:57.711Z,7.21
2019-05-11T02:33:55.737Z,9.39
2019-05-11T02:39:04.933Z,9.79
2019-05-11T02:44:12.692Z,11.12
2019-05-11T02:49:20.636Z,11.55
2019-05-11T02:54:28.540Z,9.45
2019-05-11T02:59:36.369Z,11.89
2019-05-11T03:04:44.446Z,9.81
2019-05-11T03:09:54.717Z,11.52
2019-05-11T03:14:52.539Z,9.28
2019-05-11T03:20:00.402Z,9.76
2019-05-11T03:25:08.264Z,10.45
2019-05-11T03:30:16.122Z,13.12
2019-05-11T03:35:24.414Z,8.06
2019-05-11T03:40:32.394Z,11.02
2019-05-11T03:45:40.337Z,11.71
2019-05-11T03:50:48.098Z,9.80
2019-05-11T03:55:55.911Z,9.00
2019-05-11T04:01:03.718Z,10.39
2019-05-11T04:06:11.982Z,11.52
2019-05-11T04:11:19.956Z,9.13
2019-05-11T04:16:28.116Z,9.17
2019-05-11T04:21:35.886Z,11.04
2019-05-11T04:26:43.673Z,12.87
2019-05-11T04:31:52.534Z,13.32
2019-05-11T04:37:01.786Z,9.65
2019-05-11T04:42:09.624Z,13.62
2019-05-11T04:47:17.381Z,13.24
2019-05-11T04:52:25.082Z,12.06
2019-05-11T04:57:34.426Z,11.06
2019-05-11T05:02:42.757Z,9.66
2019-05-11T05:07:51.015Z,9.93
2019-05-11T05:13:10.172Z,10.72
2019-05-11T05:18:06.326Z,12.17
2019-05-11T05:23:15.198Z,18.11
2019-05-11T05:28:23.447Z,9.37
2019-05-11T05:33:31.280Z,11.89
2019-05-11T05:38:39.433Z,12.16
2019-05-11T05:43:47.386Z,12.44
2019-05-11T05:48:55.318Z,10.75
2019-05-11T05:54:04.153Z,9.62
2019-05-11T05:59:12.007Z,11.12
2019-05-11T06:04:20.217Z,11.24
2019-05-11T06:09:29.348Z,11.46
2019-05-11T06:14:37.462Z,8.13
2019-05-11T06:19:45.596Z,9.92
2019-05-11T06:24:53.544Z,10.43
2019-05-11T06:30:01.427Z,8.87
2019-05-11T06:35:09.416Z,9.65
2019-05-11T06:40:17.725Z,10.60
2019-05-11T06:45:25.490Z,7.98
2019-05-11T06:50:34.350Z,8.57
2019-05-11T06:55:42.697Z,10.41
2019-05-11T07:00:51.567Z,8.31
2019-05-11T07:06:01.291Z,6.69
2019-05-11T07:11:09.363Z,7.85
2019-05-11T07:16:17.431Z,7.31
2019-05-11T07:21:25.687Z,8.17
2019-05-11T07:26:33.564Z,7.00
2019-05-11T07:31:41.325Z,5.58
2019-05-11T07:36:49.530Z,6.25
2019-05-11T07:41:58.452Z,10.52
2019-05-11T07:47:04.730Z,4.63
2019-05-11T07:52:12.903Z,7.85
2019-05-11T07:57:21.200Z,8.97
2019-05-11T08:02:32.308Z,5.73
2019-05-11T08:07:38.299Z,6.27
2019-05-11T08:12:48.044Z,6.28
2019-05-11T08:17:53.934Z,7.98
2019-05-11T08:23:02.142Z,5.55
2019-05-11T08:28:12.126Z,7.48
2019-05-11T08:33:18.292Z,7.01
2019-05-11T08:38:25.292Z,6.72
2019-05-11T08:43:38.701Z,5.18
2019-05-11T08:48:34.009Z,5.11
2019-05-11T08:53:41.748Z,7.12
2019-05-11T08:58:49.527Z,7.35
2019-05-11T09:03:58.349Z,7.57
2019-05-11T09:09:05.138Z,5.53
2019-05-11T09:14:12.941Z,9.53
2019-05-11T09:19:22.442Z,4.68
2019-05-11T09:24:30.294Z,5.35
2019-05-11T09:29:38.735Z,5.74
2019-05-11T09:34:45.609Z,7.19
2019-05-11T09:39:55.406Z,6.55
2019-05-11T09:45:04.673Z,5.61
2019-05-11T09:50:14.752Z,7.61
2019-05-11T09:55:12.575Z,5.70
2019-05-11T10:00:20.284Z,4.00
2019-05-11T10:05:28.730Z,5.82
2019-05-11T10:10:35.517Z,4.13
2019-05-11T10:15:43.442Z,6.76
2019-05-11T10:20:51.227Z,5.21
2019-05-11T10:26:02.449Z,5.11
2019-05-11T10:31:01.709Z,6.16
2019-05-11T10:36:15.669Z,5.78
2019-05-11T10:41:20.386Z,5.41
2019-05-11T10:46:23.303Z,5.62
2019-05-11T10:51:30.419Z,3.67
2019-05-11T10:56:28.642Z,4.82
2019-05-11T11:01:38.140Z,6.13
2019-05-11T11:06:45.107Z,6.95
2019-05-11T11:11:57.742Z,4.53
2019-05-11T11:17:02.885Z,6.81
2019-05-11T11:22:35.458Z,5.14
2019-05-11T11:27:18.507Z,4.46
2019-05-11T11:32:28.076Z,5.57
2019-05-11T11:37:25.566Z,6.69
2019-05-11T11:42:33.576Z,3.53
2019-05-11T11:47:41.447Z,5.84
2019-05-11T11:52:49.303Z,4.52
2019-05-11T11:57:58.867Z,2.87
2019-05-11T12:03:04.502Z,4.19
2019-05-11T12:08:13.017Z,5.80
2019-05-11T12:13:21.533Z,3.16
2019-05-11T12:18:29.291Z,4.29
2019-05-11T12:23:38.381Z,5.42
2019-05-11T12:28:48.709Z,5.94
2019-05-11T12:33:53.907Z,6.21
2019-05-11T12:39:01.708Z,4.66
2019-05-11T12:44:09.711Z,5.37
2019-05-11T12:49:18.833Z,5.06
2019-05-11T12:54:28.010Z,5.02
2019-05-11T12:59:34.226Z,4.18
2019-05-11T13:04:42.490Z,3.34
2019-05-11T13:09:50.778Z,5.08
2019-05-11T13:14:59.582Z,6.23
2019-05-11T13:20:08.701Z,4.91
2019-05-11T13:25:15.006Z,4.20
2019-05-11T13:30:23.130Z,7.14
2019-05-11T13:35:31.953Z,5.20
2019-05-11T13:40:39.715Z,6.51
2019-05-11T13:45:48.095Z,4.53
2019-05-11T13:50:58.075Z,4.76
2019-05-11T13:56:03.223Z,9.18
2019-05-11T14:01:11.635Z,5.14
2019-05-11T14:06:19.438Z,5.59
2019-05-11T14:11:28.649Z,4.37
2019-05-11T14:16:34.802Z,4.20
2019-05-11T14:21:42.779Z,6.03
2019-05-11T14:26:51.959Z,4.58
2019-05-11T14:31:59.918Z,7.86
2019-05-11T14:37:08.776Z,7.00
2019-05-11T14:42:16.431Z,4.51
2019-05-11T14:47:24.332Z,3.47
2019-05-11T14:52:32.162Z,6.13
2019-05-11T14:57:41.586Z,4.34
2019-05-11T15:02:50.081Z,3.60
2019-05-11T15:07:58.214Z,5.80
2019-05-11T15:13:04.122Z,5.33
2019-05-11T15:18:11.810Z,6.03
2019-05-11T15:23:19.495Z,5.08
2019-05-11T15:28:28.529Z,6.90
2019-05-11T15:33:34.281Z,3.75
2019-05-11T15:38:42.136Z,6.00
2019-05-11T15:43:49.757Z,5.17
2019-05-11T15:49:03.093Z,4.29
2019-05-11T15:54:04.680Z,5.45
2019-05-11T15:59:12.339Z,6.47
2019-05-11T16:04:20.185Z,4.92
2019-05-11T16:09:29.064Z,10.01
2019-05-11T16:14:35.129Z,4.82
2019-05-11T16:19:43.081Z,4.34
2019-05-11T16:24:51.037Z,5.98
2019-05-11T16:29:58.837Z,6.36
2019-05-11T16:35:08.806Z,4.45
2019-05-11T16:40:13.809Z,4.51
2019-05-11T16:45:23.764Z,5.45
2019-05-11T16:50:28.995Z,5.04
2019-05-11T16:55:37.692Z,7.09
2019-05-11T17:00:44.221Z,4.98
2019-05-11T17:05:52.977Z,3.81
2019-05-11T17:11:00.771Z,7.76
2019-05-11T17:16:08.878Z,6.70
2019-05-11T17:21:18.072Z,4.79
2019-05-11T17:26:23.304Z,8.48
2019-05-11T17:31:32.089Z,4.76
2019-05-11T17:36:39.741Z,6.11
2019-05-11T17:41:47.963Z,5.24
2019-05-11T17:46:54.639Z,5.89
2019-05-11T17:52:02.379Z,5.88
2019-05-11T17:57:10.159Z,5.66
2019-05-11T18:02:18.221Z,6.65
2019-05-11T18:07:27.801Z,5.41
2019-05-11T18:12:32.473Z,5.74
2019-05-11T18:17:40.300Z,4.75
2019-05-11T18:22:49.062Z,4.84
2019-05-11T18:27:55.307Z,5.21
2019-05-11T18:33:03.033Z,7.32
2019-05-11T18:38:10.653Z,8.30
2019-05-11T18:43:18.908Z,5.22
2019-05-11T18:48:25.622Z,4.66
2019-05-11T18:53:33.312Z,4.63
2019-05-11T18:58:41.032Z,5.23
2019-05-11T19:03:48.760Z,5.94
2019-05-11T19:08:58.112Z,5.84
2019-05-11T19:14:03.617Z,3.99
2019-05-11T19:19:11.292Z,4.29
2019-05-11T19:24:19.134Z,8.58
2019-05-11T19:29:28.295Z,6.06
2019-05-11T19:34:35.058Z,7.50
2019-05-11T19:39:42.894Z,9.31
2019-05-11T19:44:50.654Z,7.64
2019-05-11T19:49:58.405Z,5.72
2019-05-11T19:55:08.412Z,6.68
2019-05-11T20:00:13.413Z,5.98
2019-05-11T20:05:21.149Z,6.93
2019-05-11T20:10:28.793Z,6.96
2019-05-11T20:15:38.086Z,9.61
2019-05-11T20:20:43.613Z,8.05
2019-05-11T20:25:51.253Z,7.28
2019-05-11T20:30:59.094Z,7.16
2019-05-11T20:36:08.717Z,11.30
2019-05-11T20:41:13.976Z,8.44
2019-05-11T20:46:21.683Z,5.90
2019-05-11T20:51:36.591Z,6.44
2019-05-11T20:56:38.638Z,6.60
2019-05-11T21:01:44.137Z,10.06
2019-05-11T21:06:51.902Z,5.97
2019-05-11T21:12:02.787Z,6.33
2019-05-11T21:17:08.903Z,7.04
2019-05-11T21:22:14.444Z,7.31
2019-05-11T21:27:22.041Z,8.05
2019-05-11T21:32:29.686Z,6.05
2019-05-11T21:37:38.747Z,5.92
2019-05-11T21:42:44.837Z,8.71
2019-05-11T21:47:52.517Z,7.60
2019-05-11T21:53:00.208Z,7.83
2019-05-11T21:58:09.011Z,7.12
2019-05-11T22:03:15.099Z,7.66
2019-05-11T22:08:22.781Z,6.86
2019-05-11T22:13:30.386Z,5.35
2019-05-11T22:18:38.117Z,5.64
2019-05-11T22:23:47.451Z,6.45
2019-05-11T22:28:52.994Z,6.60
2019-05-11T22:34:00.745Z,6.41
2019-05-11T22:39:08.527Z,6.44
2019-05-11T22:44:18.144Z,10.23
2019-05-11T22:49:23.621Z,5.31
2019-05-11T22:54:31.353Z,8.75
2019-05-11T22:59:39.165Z,5.65
2019-05-11T23:04:48.488Z,5.78
2019-05-11T23:09:54.083Z,10.19
2019-05-11T23:15:01.982Z,7.84
2019-05-11T23:20:09.822Z,6.49
2019-05-11T23:25:18.431Z,5.98
2019-05-11T23:30:24.629Z,5.77
2019-05-11T23:35:32.400Z,7.98
2019-05-11T23:40:40.001Z,5.97
2019-05-11T23:45:47.709Z,8.49
2019-05-11T23:50:57.899Z,4.63
2019-05-11T23:56:02.757Z,8.81
